createdAt,value
2019-01-16T00:00:12.408Z,7.70
2019-01-16T00:03:07.839Z,7.80
2019-01-16T00:06:14.234Z,7.80
2019-01-16T00:09:06.064Z,7.70
2019-01-16T00:12:16.608Z,7.70
2019-01-16T00:15:06.783Z,7.80
2019-01-16T00:17:53.693Z,7.70
2019-01-16T00:23:58.049Z,7.80
2019-01-16T00:27:34.445Z,7.80
2019-01-16T00:31:03.831Z,7.80
2019-01-16T00:41:20.851Z,7.80
2019-01-16T00:44:29.086Z,7.80
2019-01-16T01:13:45.811Z,7.70
2019-01-16T01:28:22.216Z,7.70
2019-01-16T01:57:11.767Z,7.80
2019-01-16T02:56:30.029Z,7.70
2019-01-16T03:07:45.582Z,7.70
2019-01-16T03:25:56.285Z,7.70
2019-01-16T03:36:27.665Z,7.70
2019-01-16T04:26:35.651Z,7.70
2019-01-16T04:29:36.657Z,7.80
2019-01-16T04:32:22.959Z,7.70
2019-01-16T04:35:03.026Z,7.80
2019-01-16T04:37:51.070Z,7.70
2019-01-16T04:40:54.055Z,7.80
2019-01-16T04:43:37.633Z,7.80
2019-01-16T04:46:24.515Z,7.80
2019-01-16T04:49:13.892Z,7.70
2019-01-16T04:52:09.648Z,7.70
2019-01-16T04:54:56.002Z,7.70
2019-01-16T04:57:47.676Z,7.70
2019-01-16T05:00:43.300Z,7.80
2019-01-16T05:03:25.224Z,7.80
2019-01-16T05:06:13.180Z,7.80
2019-01-16T05:08:59.574Z,7.80
2019-01-16T05:11:49.285Z,7.80
2019-01-16T05:14:26.292Z,7.70
2019-01-16T05:17:29.623Z,7.70
2019-01-16T05:20:17.672Z,7.70
2019-01-16T05:23:03.806Z,7.80
2019-01-16T05:25:53.095Z,7.70
2019-01-16T05:28:40.177Z,7.70
2019-01-16T05:31:29.002Z,7.70
2019-01-16T05:34:20.055Z,7.70
2019-01-16T05:37:07.098Z,7.80
2019-01-16T05:39:53.184Z,7.90
2019-01-16T05:42:50.453Z,7.90
2019-01-16T05:45:37.707Z,7.90
2019-01-16T05:48:37.094Z,7.90
2019-01-16T05:51:28.100Z,7.90
2019-01-16T05:54:36.109Z,7.90
2019-01-16T05:57:27.267Z,7.80
2019-01-16T06:00:27.029Z,7.80
2019-01-16T06:03:09.554Z,7.80
2019-01-16T06:06:09.001Z,7.80
2019-01-16T06:09:06.574Z,7.80
2019-01-16T06:12:06.527Z,7.80
2019-01-16T06:14:53.326Z,7.90
2019-01-16T06:17:31.559Z,7.80
2019-01-16T06:20:14.016Z,7.80
2019-01-16T06:23:14.762Z,7.80
2019-01-16T06:25:50.699Z,7.80
2019-01-16T06:28:37.482Z,7.70
2019-01-16T06:31:28.568Z,7.70
2019-01-16T06:34:26.658Z,7.80
2019-01-16T06:37:02.064Z,7.70
2019-01-16T06:39:53.149Z,7.70
2019-01-16T06:42:40.384Z,7.70
2019-01-16T06:45:21.786Z,7.70
2019-01-16T06:48:22.156Z,7.70
2019-01-16T06:51:05.408Z,7.70
2019-01-16T06:53:50.101Z,7.70
2019-01-16T06:56:43.700Z,7.70
2019-01-16T06:59:41.360Z,7.70
2019-01-16T07:02:47.686Z,7.70
2019-01-16T07:06:26.391Z,7.70
2019-01-16T07:10:05.268Z,7.70
2019-01-16T07:16:34.791Z,7.60
2019-01-16T07:19:15.773Z,7.60
2019-01-16T07:22:12.638Z,7.60
2019-01-16T07:24:59.227Z,7.60
2019-01-16T07:27:46.112Z,7.60
2019-01-16T07:30:52.176Z,7.60
2019-01-16T07:33:47.340Z,7.60
2019-01-16T07:36:36.280Z,7.60
2019-01-16T07:39:36.751Z,7.60
2019-01-16T07:59:40.023Z,7.90
2019-01-16T08:06:47.246Z,8.10
2019-01-16T08:09:55.334Z,8.20
2019-01-16T08:17:28.288Z,8.30
2019-01-16T08:20:44.400Z,8.30
2019-01-16T08:24:05.380Z,8.20
2019-01-16T08:27:06.319Z,8.30
2019-01-16T08:30:11.660Z,8.30
2019-01-16T08:33:22.841Z,8.30
2019-01-16T08:36:47.826Z,8.30
2019-01-16T08:39:55.519Z,8.40
2019-01-16T08:43:00.190Z,8.40
2019-01-16T08:45:56.820Z,8.40
2019-01-16T08:48:58.053Z,8.50
2019-01-16T08:51:37.451Z,8.50
2019-01-16T08:54:38.641Z,8.40
2019-01-16T08:57:54.771Z,8.40
2019-01-16T09:00:56.332Z,8.40
2019-01-16T09:03:57.358Z,8.50
2019-01-16T09:07:21.338Z,8.50
2019-01-16T09:10:52.577Z,8.60
2019-01-16T09:17:11.995Z,8.60
2019-01-16T09:20:42.751Z,8.60
2019-01-16T09:30:08.309Z,8.60
2019-01-16T09:33:04.061Z,8.70
2019-01-16T09:35:58.830Z,8.70
2019-01-16T09:38:53.177Z,8.80
2019-01-16T09:41:39.110Z,8.80
2019-01-16T09:44:23.951Z,8.70
2019-01-16T09:47:04.402Z,8.70
2019-01-16T09:49:55.679Z,8.80
2019-01-16T09:52:42.317Z,8.80
2019-01-16T09:55:36.463Z,8.80
2019-01-16T09:58:25.994Z,8.80
2019-01-16T10:01:23.068Z,8.80
2019-01-16T10:04:23.582Z,8.90
2019-01-16T10:07:17.785Z,9.00
2019-01-16T10:10:06.156Z,9.00
2019-01-16T10:13:03.110Z,9.00
2019-01-16T10:15:53.967Z,9.00
2019-01-16T10:18:52.081Z,9.00
2019-01-16T10:21:43.340Z,9.00
2019-01-16T10:24:37.491Z,8.90
2019-01-16T10:27:25.504Z,8.70
2019-01-16T10:30:06.787Z,8.70
2019-01-16T10:33:03.828Z,8.60
2019-01-16T10:35:56.622Z,8.60
2019-01-16T10:38:43.003Z,8.50
2019-01-16T10:41:29.496Z,8.50
2019-01-16T10:44:16.255Z,8.60
2019-01-16T10:47:07.569Z,8.50
2019-01-16T10:49:56.109Z,8.50
2019-01-16T10:52:46.532Z,8.50
2019-01-16T10:55:28.161Z,8.40
2019-01-16T10:58:30.952Z,8.40
2019-01-16T11:01:11.934Z,8.40
2019-01-16T11:04:00.984Z,8.40
2019-01-16T11:06:47.410Z,8.30
2019-01-16T11:09:29.397Z,8.30
2019-01-16T11:12:13.044Z,8.10
2019-01-16T11:15:00.138Z,8.10
2019-01-16T11:18:06.504Z,8.10
2019-01-16T11:21:11.182Z,8.00
2019-01-16T11:24:02.852Z,8.00
2019-01-16T11:26:49.340Z,7.90
2019-01-16T11:29:55.428Z,7.90
2019-01-16T11:33:01.488Z,7.90
2019-01-16T11:35:39.991Z,8.00
2019-01-16T11:38:26.448Z,8.00
2019-01-16T11:41:02.967Z,8.00
2019-01-16T11:43:41.166Z,8.00
2019-01-16T11:46:25.507Z,8.00
2019-01-16T11:49:09.276Z,8.10
2019-01-16T11:52:00.015Z,8.10
2019-01-16T11:54:53.971Z,8.10
2019-01-16T11:57:44.671Z,8.10
2019-01-16T12:00:28.129Z,8.10
2019-01-16T12:03:05.051Z,8.10
2019-01-16T12:05:55.950Z,8.00
2019-01-16T12:08:44.599Z,8.00
2019-01-16T12:11:31.068Z,8.00
2019-01-16T12:14:13.795Z,8.00
2019-01-16T12:17:00.640Z,8.00
2019-01-16T12:19:48.524Z,8.00
2019-01-16T12:22:31.864Z,8.00
2019-01-16T12:25:18.664Z,8.00
2019-01-16T12:28:12.549Z,8.10
2019-01-16T12:30:59.904Z,8.10
2019-01-16T12:33:40.201Z,8.10
2019-01-16T12:36:22.598Z,8.10
2019-01-16T12:39:28.865Z,8.10
2019-01-16T12:42:38.685Z,8.20
2019-01-16T12:45:39.262Z,8.10
2019-01-16T12:48:45.589Z,8.10
2019-01-16T12:51:51.939Z,8.20
2019-01-16T12:54:38.591Z,8.20
2019-01-16T12:57:18.912Z,8.20
2019-01-16T13:00:10.969Z,8.20
2019-01-16T13:02:54.241Z,8.20
2019-01-16T13:05:59.231Z,8.20
2019-01-16T13:08:41.288Z,8.10
2019-01-16T13:11:32.878Z,8.10
2019-01-16T13:14:21.363Z,8.10
2019-01-16T13:17:18.400Z,8.10
2019-01-16T13:20:12.051Z,8.10
2019-01-16T13:22:54.494Z,8.00
2019-01-16T13:25:42.559Z,7.90
2019-01-16T13:28:30.941Z,7.80
2019-01-16T13:31:25.043Z,7.80
2019-01-16T13:34:01.155Z,7.70
2019-01-16T13:37:01.110Z,7.70
2019-01-16T13:39:49.125Z,7.60
2019-01-16T13:42:40.047Z,7.50
2019-01-16T13:45:40.539Z,7.50
2019-01-16T13:48:32.543Z,7.40
2019-01-16T13:51:18.593Z,7.40
2019-01-16T13:54:02.055Z,7.40
2019-01-16T13:56:51.415Z,7.30
2019-01-16T13:59:39.363Z,7.30
2019-01-16T14:02:42.542Z,7.30
2019-01-16T14:05:42.484Z,7.30
2019-01-16T14:08:48.406Z,7.30
2019-01-16T14:11:35.639Z,7.30
2019-01-16T14:14:28.988Z,7.30
2019-01-16T14:17:17.039Z,7.30
2019-01-16T14:20:08.183Z,7.30
2019-01-16T14:22:56.159Z,7.30
2019-01-16T14:25:46.982Z,7.30
2019-01-16T14:28:33.757Z,7.40
2019-01-16T14:31:14.112Z,7.40
2019-01-16T14:34:08.261Z,7.40
2019-01-16T14:36:54.764Z,7.40
2019-01-16T14:39:41.310Z,7.40
2019-01-16T14:42:38.365Z,7.50
2019-01-16T14:45:21.954Z,7.50
2019-01-16T14:48:15.673Z,7.50
2019-01-16T14:51:00.083Z,7.50
2019-01-16T14:53:46.646Z,7.40
2019-01-16T14:56:40.714Z,7.50
2019-01-16T14:59:33.324Z,7.40
2019-01-16T15:02:20.727Z,7.40
2019-01-16T15:05:00.328Z,7.40
2019-01-16T15:07:54.122Z,7.30
2019-01-16T15:10:57.023Z,7.30
2019-01-16T15:13:45.031Z,7.20
2019-01-16T15:16:32.903Z,7.20
2019-01-16T15:19:36.622Z,7.10
2019-01-16T15:22:24.377Z,7.00
2019-01-16T15:25:10.214Z,6.90
2019-01-16T15:27:49.307Z,6.90
2019-01-16T15:30:43.623Z,6.80
2019-01-16T15:33:30.461Z,6.80
2019-01-16T15:36:21.290Z,6.80
2019-01-16T15:39:21.572Z,6.80
2019-01-16T15:42:08.073Z,6.80
2019-01-16T15:45:07.927Z,6.70
2019-01-16T15:47:55.027Z,6.70
2019-01-16T15:50:43.991Z,6.70
2019-01-16T15:53:28.634Z,6.70
2019-01-16T15:56:17.178Z,6.60
2019-01-16T15:58:53.172Z,6.70
2019-01-16T16:01:45.190Z,6.70
2019-01-16T16:04:26.348Z,6.70
2019-01-16T16:07:07.572Z,6.60
2019-01-16T16:09:54.014Z,6.60
2019-01-16T16:12:53.988Z,6.70
2019-01-16T16:15:40.460Z,6.60
2019-01-16T16:18:31.381Z,6.70
2019-01-16T16:21:17.900Z,6.70
2019-01-16T16:23:57.635Z,6.70
2019-01-16T16:26:42.794Z,6.80
2019-01-16T16:29:28.087Z,6.70
2019-01-16T16:32:11.697Z,6.70
2019-01-16T16:34:58.585Z,6.70
2019-01-16T16:38:02.361Z,6.70
2019-01-16T16:40:49.769Z,6.70
2019-01-16T16:43:37.201Z,6.70
2019-01-16T16:46:46.027Z,6.60
2019-01-16T16:49:24.103Z,6.60
2019-01-16T16:52:26.658Z,6.70
2019-01-16T16:55:42.482Z,6.70
2019-01-16T16:59:25.345Z,6.70
2019-01-16T17:13:49.020Z,7.20
2019-01-16T17:17:24.020Z,7.20
2019-01-16T17:20:24.959Z,7.30
2019-01-16T17:24:09.875Z,7.40
2019-01-16T17:30:34.827Z,7.60
2019-01-16T17:43:00.811Z,7.70
2019-01-16T17:46:04.096Z,7.70
2019-01-16T17:49:07.486Z,7.70
2019-01-16T17:51:55.896Z,7.60
2019-01-16T17:54:53.740Z,7.70
2019-01-16T17:59:34.333Z,7.80
2019-01-16T18:00:54.379Z,7.80
2019-01-16T18:03:39.618Z,7.80
2019-01-16T18:06:37.184Z,7.90
2019-01-16T18:10:20.629Z,7.90
2019-01-16T18:13:11.024Z,7.90
2019-01-16T18:15:54.964Z,7.90
2019-01-16T18:30:55.908Z,7.10
2019-01-16T18:33:47.012Z,7.00
2019-01-16T18:36:58.470Z,6.80
2019-01-16T18:39:42.533Z,6.70
2019-01-16T18:42:45.204Z,6.60
2019-01-16T18:46:02.233Z,6.50
2019-01-16T18:48:56.490Z,6.50
2019-01-16T18:52:07.069Z,6.40
2019-01-16T18:54:58.051Z,6.40
2019-01-16T18:58:01.241Z,6.30
2019-01-16T19:01:00.805Z,6.30
2019-01-16T19:04:05.520Z,6.20
2019-01-16T19:07:08.442Z,6.30
2019-01-16T19:13:27.652Z,6.20
2019-01-16T19:16:15.402Z,6.20
2019-01-16T19:18:59.277Z,6.20
2019-01-16T19:21:57.069Z,6.20
2019-01-16T19:25:02.157Z,6.20
2019-01-16T19:27:50.837Z,6.20
2019-01-16T19:30:50.801Z,6.20
2019-01-16T19:33:55.775Z,6.20
2019-01-16T19:37:00.548Z,6.10
2019-01-16T19:40:40.201Z,6.10
2019-01-16T19:44:08.875Z,6.10
2019-01-16T19:47:09.334Z,6.10
2019-01-16T19:54:23.898Z,6.00
2019-01-16T20:12:25.943Z,5.80
2019-01-16T20:14:00.472Z,5.80
2019-01-16T20:15:50.388Z,5.80
2019-01-16T20:22:32.972Z,5.80
2019-01-16T20:26:05.605Z,5.80
2019-01-16T20:31:34.192Z,5.80
2019-01-16T20:33:21.260Z,5.80
2019-01-16T20:44:59.699Z,5.80
2019-01-16T20:48:23.446Z,5.90
2019-01-16T20:54:26.902Z,5.80
2019-01-16T20:57:31.379Z,5.80
2019-01-16T21:00:57.285Z,5.80
2019-01-16T21:14:29.073Z,5.80
2019-01-16T21:17:19.589Z,5.80
2019-01-16T21:20:06.956Z,5.80
2019-01-16T21:23:35.243Z,5.80
2019-01-16T21:26:26.885Z,5.70
2019-01-16T21:29:22.687Z,5.80
2019-01-16T21:32:20.233Z,5.70
2019-01-16T21:35:32.566Z,5.80
2019-01-16T22:30:02.810Z,5.50
2019-01-16T22:37:03.724Z,5.40
2019-01-16T22:44:42.447Z,5.40
2019-01-16T22:58:57.041Z,5.40
2019-01-16T23:13:39.594Z,5.40
2019-01-16T23:16:57.599Z,5.40
